createdAt,value
2023-02-23T00:02:05.213Z,6.12
2023-02-23T00:04:35.159Z,6.11
2023-02-23T00:10:07.392Z,6.06
2023-02-23T00:12:35.861Z,6.09
2023-02-23T00:17:51.912Z,6.16
2023-02-23T00:20:25.302Z,6.10
2023-02-23T00:22:58.533Z,6.15
2023-02-23T00:25:26.991Z,6.00
2023-02-23T00:27:55.063Z,5.97
2023-02-23T00:30:24.769Z,6.02
2023-02-23T00:32:53.225Z,6.01
2023-02-23T00:35:21.470Z,5.92
2023-02-23T00:37:50.009Z,5.86
2023-02-23T00:40:21.374Z,5.88
2023-02-23T00:42:51.600Z,5.96
2023-02-23T00:45:21.633Z,5.95
2023-02-23T00:47:50.601Z,5.98
2023-02-23T00:50:19.032Z,6.02
2023-02-23T00:52:47.944Z,6.01
2023-02-23T00:55:16.232Z,6.02
2023-02-23T00:57:44.495Z,6.05
2023-02-23T01:00:20.240Z,6.06
2023-02-23T01:02:49.904Z,6.05
2023-02-23T01:05:25.420Z,6.14
2023-02-23T01:07:55.656Z,6.22
2023-02-23T01:10:25.024Z,6.23
2023-02-23T01:15:48.404Z,6.27
2023-02-23T01:18:17.940Z,6.28
2023-02-23T01:20:47.127Z,6.26
2023-02-23T01:23:16.202Z,6.26
2023-02-23T01:25:45.442Z,6.26
2023-02-23T01:28:14.062Z,6.31
2023-02-23T02:00:21.112Z,6.45
2023-02-23T02:02:49.916Z,6.43
2023-02-23T02:05:19.470Z,6.38
2023-02-23T02:07:58.842Z,6.39
2023-02-23T02:10:40.145Z,6.37
2023-02-23T02:13:10.616Z,6.44
2023-02-23T02:16:07.674Z,6.44
2023-02-23T02:18:51.215Z,6.46
2023-02-23T02:21:40.269Z,6.43
2023-02-23T02:24:26.529Z,6.49
2023-02-23T02:39:55.195Z,6.55
2023-02-23T02:42:58.430Z,6.58
2023-02-23T02:45:47.364Z,6.51
2023-02-23T02:48:25.904Z,6.44
2023-02-23T02:51:04.807Z,6.51
2023-02-23T02:53:52.877Z,6.35
2023-02-23T02:56:25.393Z,6.35
2023-02-23T02:58:56.355Z,6.36
2023-02-23T03:01:48.164Z,6.42
2023-02-23T03:04:44.168Z,6.53
2023-02-23T03:07:45.244Z,6.53
2023-02-23T03:10:58.107Z,6.51
2023-02-23T03:13:57.750Z,6.52
2023-02-23T03:16:59.410Z,6.54
2023-02-23T03:19:53.088Z,6.48
2023-02-23T03:26:11.811Z,6.40
2023-02-23T03:29:23.240Z,6.41
2023-02-23T03:32:31.830Z,6.40
2023-02-23T03:35:32.200Z,6.41
2023-02-23T03:38:30.940Z,6.33
2023-02-23T03:41:19.448Z,6.30
2023-02-23T03:44:20.442Z,6.33
2023-02-23T03:47:09.312Z,6.33
2023-02-23T03:49:58.844Z,6.34
2023-02-23T03:52:52.585Z,6.33
2023-02-23T03:55:49.479Z,6.34
2023-02-23T03:58:46.888Z,6.30
2023-02-23T04:01:36.945Z,6.28
2023-02-23T04:04:28.044Z,6.31
2023-02-23T04:07:30.673Z,6.32
2023-02-23T04:10:22.026Z,6.39
2023-02-23T04:13:22.700Z,6.33
2023-02-23T04:15:56.300Z,6.34
2023-02-23T04:18:30.482Z,6.33
2023-02-23T04:21:00.048Z,6.24
2023-02-23T04:23:29.205Z,6.19
2023-02-23T04:25:58.278Z,6.24
2023-02-23T04:28:28.246Z,6.23
2023-02-23T04:30:58.631Z,6.17
2023-02-23T04:33:27.627Z,6.14
2023-02-23T04:35:56.189Z,6.17
2023-02-23T04:38:24.759Z,6.16
2023-02-23T04:40:53.292Z,6.14
2023-02-23T04:43:21.693Z,6.27
2023-02-23T04:45:49.840Z,6.23
2023-02-23T04:48:18.449Z,6.10
2023-02-23T04:50:46.562Z,6.13
2023-02-23T04:53:15.314Z,6.08
2023-02-23T04:55:43.717Z,6.10
2023-02-23T04:58:15.386Z,6.09
2023-02-23T05:00:44.032Z,6.08
2023-02-23T05:03:12.439Z,6.15
2023-02-23T05:05:40.570Z,6.16
2023-02-23T05:08:09.916Z,6.04
2023-02-23T05:10:40.152Z,6.12
2023-02-23T05:13:09.006Z,6.15
2023-02-23T05:15:38.722Z,6.15
2023-02-23T05:18:08.579Z,6.14
2023-02-23T05:20:37.427Z,6.12
2023-02-23T05:23:05.841Z,6.06
2023-02-23T05:25:33.864Z,6.09
2023-02-23T05:28:02.564Z,6.07
2023-02-23T05:30:31.439Z,6.15
2023-02-23T05:32:59.884Z,6.10
2023-02-23T05:35:28.443Z,6.08
2023-02-23T05:37:56.587Z,6.03
2023-02-23T05:40:25.169Z,6.10
2023-02-23T05:42:59.286Z,6.06
2023-02-23T05:45:27.769Z,6.00
2023-02-23T05:47:56.322Z,6.02
2023-02-23T05:50:24.783Z,6.06
2023-02-23T05:52:52.915Z,5.99
2023-02-23T05:55:21.484Z,6.04
2023-02-23T05:57:51.051Z,6.07
2023-02-23T06:00:19.976Z,6.07
2023-02-23T06:02:53.179Z,6.08
2023-02-23T06:05:21.295Z,6.10
2023-02-23T06:07:49.724Z,6.02
2023-02-23T06:10:18.463Z,6.05
2023-02-23T06:12:46.711Z,6.05
2023-02-23T06:15:15.115Z,6.08
2023-02-23T06:17:43.538Z,6.10
2023-02-23T06:20:12.773Z,6.07
2023-02-23T06:22:42.392Z,6.10
2023-02-23T06:25:12.964Z,6.11
2023-02-23T06:27:42.319Z,6.11
2023-02-23T06:30:11.452Z,6.11
2023-02-23T06:32:40.080Z,6.13
2023-02-23T06:35:11.094Z,6.06
2023-02-23T06:37:40.061Z,6.15
2023-02-23T06:40:09.025Z,6.15
2023-02-23T06:42:42.251Z,6.20
2023-02-23T06:45:11.019Z,6.27
2023-02-23T06:47:41.042Z,6.21
2023-02-23T06:50:10.556Z,6.33
2023-02-23T06:52:39.240Z,6.32
2023-02-23T06:55:10.284Z,6.31
2023-02-23T06:57:39.331Z,6.23
2023-02-23T07:00:09.249Z,6.25
2023-02-23T07:02:38.634Z,6.19
2023-02-23T07:05:06.968Z,6.32
2023-02-23T07:07:35.683Z,6.33
2023-02-23T07:10:04.932Z,6.24
2023-02-23T07:12:33.628Z,6.28
2023-02-23T07:15:02.556Z,6.40
2023-02-23T07:17:30.768Z,6.43
2023-02-23T07:19:59.535Z,6.46
2023-02-23T07:22:30.540Z,6.46
2023-02-23T07:24:58.992Z,6.49
2023-02-23T07:27:27.712Z,6.46
2023-02-23T07:29:56.206Z,6.42
2023-02-23T07:32:24.566Z,6.43
2023-02-23T07:34:53.964Z,6.49
2023-02-23T07:37:22.275Z,6.48
2023-02-23T07:39:50.461Z,6.55
2023-02-23T07:42:18.956Z,6.58
2023-02-23T07:44:47.534Z,6.59
2023-02-23T07:47:15.701Z,6.64
2023-02-23T07:49:44.574Z,6.65
2023-02-23T07:52:12.751Z,6.71
2023-02-23T07:54:40.906Z,6.67
2023-02-23T07:57:09.451Z,6.72
2023-02-23T07:59:39.291Z,6.81
2023-02-23T08:02:07.763Z,6.80
2023-02-23T08:04:36.290Z,6.76
2023-02-23T08:07:04.723Z,6.86
2023-02-23T08:09:36.036Z,6.90
2023-02-23T08:12:04.817Z,6.99
2023-02-23T08:14:33.076Z,7.10
2023-02-23T08:17:01.666Z,6.93
2023-02-23T08:19:30.680Z,7.11
2023-02-23T08:21:59.206Z,7.20
2023-02-23T08:24:29.368Z,7.16
2023-02-23T08:26:59.117Z,6.94
2023-02-23T08:29:27.719Z,6.95
2023-02-23T08:31:56.454Z,7.13
2023-02-23T08:34:25.417Z,7.26
2023-02-23T08:36:54.219Z,7.37
2023-02-23T08:39:23.106Z,7.38
2023-02-23T08:41:52.546Z,7.42
2023-02-23T08:44:20.819Z,7.21
2023-02-23T08:46:49.064Z,7.39
2023-02-23T08:49:17.675Z,7.46
2023-02-23T08:51:47.235Z,7.46
2023-02-23T08:54:16.283Z,7.31
2023-02-23T08:56:45.048Z,7.45
2023-02-23T08:59:14.598Z,7.56
2023-02-23T09:01:43.353Z,7.51
2023-02-23T09:04:12.057Z,7.45
2023-02-23T09:06:42.357Z,7.08
2023-02-23T09:09:10.628Z,7.39
2023-02-23T09:11:39.686Z,7.34
2023-02-23T09:14:08.816Z,7.48
2023-02-23T09:16:37.113Z,7.34
2023-02-23T09:19:06.188Z,7.51
2023-02-23T09:21:34.742Z,7.60
2023-02-23T09:24:03.087Z,7.63
2023-02-23T09:26:32.596Z,7.71
2023-02-23T09:29:02.102Z,7.63
2023-02-23T09:31:30.181Z,7.60
2023-02-23T09:34:00.519Z,7.74
2023-02-23T09:36:32.062Z,7.85
2023-02-23T09:39:01.522Z,7.62
2023-02-23T09:42:03.265Z,7.75
2023-02-23T09:44:46.830Z,7.60
2023-02-23T09:47:40.656Z,7.75
2023-02-23T09:50:18.228Z,8.05
2023-02-23T09:52:54.392Z,7.93
2023-02-23T09:55:23.114Z,8.14
2023-02-23T09:57:51.408Z,8.18
2023-02-23T10:00:25.531Z,8.18
2023-02-23T10:03:31.281Z,8.09
2023-02-23T10:06:04.384Z,8.06
2023-02-23T10:09:10.393Z,8.09
2023-02-23T10:11:56.660Z,8.27
2023-02-23T10:14:31.355Z,8.36
2023-02-23T10:17:17.829Z,8.54
2023-02-23T10:20:32.262Z,8.55
2023-02-23T10:23:07.344Z,8.45
2023-02-23T10:25:40.303Z,8.70
2023-02-23T10:28:14.568Z,8.74
2023-02-23T10:30:46.013Z,8.91
2023-02-23T10:33:20.854Z,8.94
2023-02-23T10:35:52.408Z,8.99
2023-02-23T10:38:22.655Z,8.76
2023-02-23T10:40:55.898Z,8.76
2023-02-23T10:43:24.619Z,8.58
2023-02-23T10:45:53.711Z,8.87
2023-02-23T10:48:29.952Z,8.97
2023-02-23T10:51:03.312Z,8.57
2023-02-23T10:53:36.533Z,8.84
2023-02-23T10:56:13.748Z,8.76
2023-02-23T10:58:49.910Z,8.83
2023-02-23T11:01:36.511Z,8.86
2023-02-23T11:04:26.831Z,8.94
2023-02-23T11:07:09.181Z,8.80
2023-02-23T11:09:46.405Z,8.87
2023-02-23T11:12:29.745Z,8.99
2023-02-23T11:15:42.802Z,8.96
2023-02-23T11:18:22.917Z,9.27
2023-02-23T11:20:51.912Z,9.45
2023-02-23T11:23:29.310Z,9.52
2023-02-23T11:26:00.636Z,9.45
2023-02-23T11:28:37.482Z,9.18
2023-02-23T11:31:19.879Z,9.11
2023-02-23T11:33:50.121Z,8.97
2023-02-23T11:36:29.565Z,8.99
2023-02-23T11:39:06.623Z,9.10
2023-02-23T11:41:37.452Z,9.32
2023-02-23T11:44:06.624Z,9.10
2023-02-23T11:46:39.359Z,9.47
2023-02-23T11:49:14.822Z,9.61
2023-02-23T11:51:54.554Z,9.71
2023-02-23T11:54:27.135Z,9.71
2023-02-23T11:56:57.665Z,9.64
2023-02-23T11:59:38.247Z,9.62
2023-02-23T12:02:23.163Z,9.77
2023-02-23T12:05:16.130Z,9.88
2023-02-23T12:08:12.990Z,9.71
2023-02-23T12:10:51.988Z,9.61
2023-02-23T12:13:20.299Z,9.44
2023-02-23T12:16:46.238Z,9.52
2023-02-23T12:19:29.483Z,9.51
2023-02-23T12:22:18.674Z,9.46
2023-02-23T12:25:27.037Z,9.54
2023-02-23T12:28:18.167Z,9.47
2023-02-23T12:30:56.285Z,9.48
2023-02-23T12:33:57.523Z,9.13
2023-02-23T12:36:35.528Z,9.28
2023-02-23T12:39:17.793Z,9.40
2023-02-23T12:42:08.124Z,9.37
2023-02-23T12:44:53.010Z,9.25
2023-02-23T12:47:33.078Z,9.08
2023-02-23T12:50:34.030Z,9.02
2023-02-23T12:53:27.442Z,9.15
2023-02-23T12:56:05.183Z,9.37
2023-02-23T12:58:58.092Z,9.39
2023-02-23T13:01:34.085Z,9.36
2023-02-23T13:04:13.598Z,9.45
2023-02-23T13:06:59.500Z,9.37
2023-02-23T13:09:27.599Z,9.26
2023-02-23T13:12:19.967Z,9.38
2023-02-23T13:15:05.656Z,9.37
2023-02-23T13:17:43.065Z,9.22
2023-02-23T13:20:50.631Z,9.35
2023-02-23T13:23:36.827Z,9.33
2023-02-23T13:26:25.724Z,9.33
2023-02-23T13:29:17.677Z,9.28
2023-02-23T13:31:47.136Z,9.28
2023-02-23T13:34:28.584Z,9.42
2023-02-23T13:36:58.876Z,9.56
2023-02-23T13:39:49.375Z,9.68
2023-02-23T13:42:32.730Z,9.66
2023-02-23T13:45:06.796Z,9.68
2023-02-23T13:47:35.103Z,9.62
2023-02-23T13:50:22.648Z,9.40
2023-02-23T13:52:58.569Z,9.46
2023-02-23T13:55:28.340Z,9.44
2023-02-23T13:58:17.674Z,9.40
2023-02-23T14:01:05.749Z,9.52
2023-02-23T14:03:42.341Z,9.42
2023-02-23T14:06:14.848Z,9.43
2023-02-23T14:08:46.472Z,9.61
2023-02-23T14:11:30.094Z,9.38
2023-02-23T14:14:05.626Z,9.37
2023-02-23T14:16:33.950Z,9.37
2023-02-23T14:19:07.765Z,9.55
2023-02-23T14:21:45.962Z,9.40
2023-02-23T14:24:25.230Z,9.29
2023-02-23T14:27:41.056Z,9.31
2023-02-23T14:30:11.644Z,9.30
2023-02-23T14:32:42.091Z,9.35
2023-02-23T14:35:32.849Z,9.27
2023-02-23T14:38:05.124Z,9.24
2023-02-23T14:40:39.275Z,9.17
2023-02-23T14:43:46.377Z,9.23
2023-02-23T14:46:21.730Z,9.19
2023-02-23T14:49:15.848Z,9.27
2023-02-23T14:51:48.615Z,9.29
2023-02-23T14:54:39.935Z,9.15
2023-02-23T14:57:23.464Z,9.27
2023-02-23T15:00:01.384Z,9.30
2023-02-23T15:02:30.946Z,9.27
2023-02-23T15:04:59.168Z,9.23
2023-02-23T15:07:38.747Z,9.23
2023-02-23T15:10:18.420Z,9.13
2023-02-23T15:12:47.548Z,9.22
2023-02-23T15:15:23.570Z,9.15
2023-02-23T15:17:56.240Z,9.12
2023-02-23T15:23:05.018Z,9.14
2023-02-23T15:25:39.500Z,9.11
2023-02-23T15:28:32.636Z,9.13
2023-02-23T15:31:04.743Z,9.09
2023-02-23T15:33:35.210Z,9.07
2023-02-23T15:36:08.034Z,9.03
2023-02-23T15:38:46.417Z,9.01
2023-02-23T15:41:36.961Z,9.00
2023-02-23T15:44:27.471Z,8.99
2023-02-23T15:47:00.807Z,9.01
2023-02-23T15:49:40.705Z,8.99
2023-02-23T15:52:22.013Z,8.97
2023-02-23T15:55:01.858Z,8.97
2023-02-23T15:57:44.486Z,8.94
2023-02-23T16:00:33.076Z,8.95
2023-02-23T16:03:03.642Z,8.94
2023-02-23T16:05:41.826Z,8.88
2023-02-23T16:08:25.368Z,8.81
2023-02-23T16:11:02.197Z,8.80
2023-02-23T16:13:30.809Z,8.75
2023-02-23T16:15:59.836Z,8.67
2023-02-23T16:18:38.202Z,8.64
2023-02-23T16:21:14.573Z,8.60
2023-02-23T16:23:48.022Z,8.59
2023-02-23T16:26:31.009Z,8.57
2023-02-23T16:29:02.309Z,8.56
2023-02-23T16:31:59.120Z,8.51
2023-02-23T16:34:49.501Z,8.47
2023-02-23T16:37:26.204Z,8.43
2023-02-23T16:40:00.136Z,8.41
2023-02-23T16:42:35.993Z,8.42
2023-02-23T16:45:05.611Z,8.47
2023-02-23T16:47:47.745Z,8.47
2023-02-23T16:50:21.716Z,8.52
2023-02-23T16:52:52.476Z,8.62
2023-02-23T16:55:27.911Z,8.57
2023-02-23T16:58:02.227Z,8.53
2023-02-23T17:00:33.109Z,8.44
2023-02-23T17:03:05.707Z,8.38
2023-02-23T17:05:34.401Z,8.38
2023-02-23T17:08:05.151Z,8.35
2023-02-23T17:10:35.443Z,8.26
2023-02-23T17:13:10.003Z,8.24
2023-02-23T17:15:48.163Z,8.20
2023-02-23T17:18:17.458Z,8.15
2023-02-23T17:20:45.958Z,8.14
2023-02-23T17:23:14.802Z,8.12
2023-02-23T17:25:43.586Z,8.12
2023-02-23T17:28:12.484Z,8.11
2023-02-23T17:30:42.812Z,8.15
2023-02-23T17:33:11.857Z,8.20
2023-02-23T17:35:40.579Z,8.18
2023-02-23T17:38:09.135Z,8.18
2023-02-23T17:40:38.493Z,8.11
2023-02-23T17:43:07.730Z,8.07
2023-02-23T17:45:36.626Z,7.95
2023-02-23T17:48:05.439Z,7.95
2023-02-23T17:50:35.383Z,7.92
2023-02-23T17:53:03.832Z,7.92
2023-02-23T17:55:32.925Z,7.93
2023-02-23T17:58:01.774Z,7.93
2023-02-23T18:00:30.688Z,7.94
2023-02-23T18:02:59.188Z,7.99
2023-02-23T18:05:27.489Z,8.04
2023-02-23T18:07:55.908Z,8.00
2023-02-23T18:10:25.411Z,7.96
2023-02-23T18:12:54.440Z,7.93
2023-02-23T18:15:23.968Z,7.87
2023-02-23T18:17:54.668Z,7.85
2023-02-23T18:20:23.751Z,7.83
2023-02-23T18:22:52.470Z,7.81
2023-02-23T18:25:29.250Z,7.80
2023-02-23T18:27:58.668Z,7.81
2023-02-23T18:30:27.640Z,7.80
2023-02-23T18:33:00.695Z,7.77
2023-02-23T18:35:36.102Z,7.77
2023-02-23T18:38:05.455Z,7.73
2023-02-23T18:40:37.947Z,7.69
2023-02-23T18:43:06.752Z,7.63
2023-02-23T18:45:35.114Z,7.69
2023-02-23T18:48:04.201Z,7.67
2023-02-23T18:50:32.528Z,7.69
2023-02-23T18:53:05.100Z,7.68
2023-02-23T18:55:36.835Z,7.65
2023-02-23T18:58:05.854Z,7.58
2023-02-23T19:00:40.362Z,7.57
2023-02-23T19:03:12.618Z,7.57
2023-02-23T19:05:50.217Z,7.55
2023-02-23T19:08:22.782Z,7.52
2023-02-23T19:10:52.638Z,7.51
2023-02-23T19:13:22.273Z,7.53
2023-02-23T19:15:53.805Z,7.46
2023-02-23T19:18:22.492Z,7.47
2023-02-23T19:20:52.445Z,7.49
2023-02-23T19:23:21.707Z,7.39
2023-02-23T19:25:50.830Z,7.35
2023-02-23T19:28:21.165Z,7.28
2023-02-23T19:30:49.933Z,7.30
2023-02-23T19:33:20.007Z,7.27
2023-02-23T19:35:51.170Z,7.21
2023-02-23T19:38:21.889Z,7.16
2023-02-23T19:40:50.397Z,7.22
2023-02-23T19:43:18.865Z,7.25
2023-02-23T19:45:49.005Z,7.22
2023-02-23T19:48:17.591Z,7.25
2023-02-23T19:50:48.142Z,7.20
2023-02-23T19:53:17.201Z,7.16
2023-02-23T19:55:45.643Z,7.12
2023-02-23T19:58:14.306Z,7.08
2023-02-23T20:00:43.060Z,7.08
2023-02-23T20:03:14.323Z,7.04
2023-02-23T20:05:42.878Z,6.94
2023-02-23T20:08:12.329Z,6.99
2023-02-23T20:10:42.593Z,6.97
2023-02-23T20:13:10.920Z,6.95
2023-02-23T20:15:39.731Z,7.01
2023-02-23T20:18:08.488Z,7.09
2023-02-23T20:20:39.230Z,7.08
2023-02-23T20:23:08.966Z,7.13
2023-02-23T20:25:40.833Z,7.16
2023-02-23T20:28:10.115Z,7.34
2023-02-23T20:30:39.124Z,7.24
2023-02-23T20:33:10.842Z,7.11
2023-02-23T20:35:42.308Z,7.18
2023-02-23T20:38:11.659Z,7.17
2023-02-23T20:40:40.868Z,7.21
2023-02-23T20:43:14.138Z,7.20
2023-02-23T20:45:42.600Z,7.22
2023-02-23T20:48:12.118Z,7.31
2023-02-23T20:50:42.594Z,7.27
2023-02-23T20:53:11.559Z,7.25
2023-02-23T20:55:40.049Z,7.22
2023-02-23T20:58:08.628Z,7.23
2023-02-23T21:00:37.066Z,7.21
2023-02-23T21:03:05.545Z,7.19
2023-02-23T21:05:40.427Z,7.18
2023-02-23T21:08:09.590Z,7.03
2023-02-23T21:10:39.823Z,6.89
2023-02-23T21:13:11.905Z,6.90
2023-02-23T21:15:41.715Z,7.04
2023-02-23T21:18:10.760Z,7.06
2023-02-23T21:20:39.682Z,7.07
2023-02-23T21:23:08.415Z,7.05
2023-02-23T21:25:37.716Z,7.04
2023-02-23T21:28:06.164Z,7.05
2023-02-23T21:30:34.909Z,7.11
2023-02-23T21:33:03.917Z,7.09
2023-02-23T21:35:35.238Z,7.08
2023-02-23T21:38:04.756Z,7.09
2023-02-23T21:40:33.362Z,7.05
2023-02-23T21:43:06.688Z,6.91
2023-02-23T21:45:38.235Z,6.92
2023-02-23T21:48:06.258Z,6.97
2023-02-23T21:50:34.783Z,6.98
2023-02-23T21:53:03.024Z,7.00
2023-02-23T21:55:31.637Z,7.06
2023-02-23T21:58:00.103Z,7.01
2023-02-23T22:00:30.716Z,7.04
2023-02-23T22:02:59.682Z,7.09
2023-02-23T22:05:28.096Z,7.12
2023-02-23T22:07:56.538Z,7.10
2023-02-23T22:10:25.005Z,7.10
2023-02-23T22:12:58.675Z,7.18
2023-02-23T22:15:29.745Z,7.21
2023-02-23T22:17:57.997Z,7.19
2023-02-23T22:20:26.541Z,7.13
2023-02-23T22:22:54.824Z,7.14
2023-02-23T22:25:23.094Z,7.18
2023-02-23T22:27:51.477Z,7.22
2023-02-23T22:30:23.041Z,7.27
2023-02-23T22:32:51.763Z,7.27
2023-02-23T22:35:20.046Z,7.27
2023-02-23T22:37:48.553Z,7.25
2023-02-23T22:40:17.513Z,7.25
2023-02-23T22:42:48.395Z,7.26
2023-02-23T22:45:18.002Z,7.34
2023-02-23T22:47:46.567Z,7.43
2023-02-23T22:50:18.142Z,7.29
2023-02-23T22:52:47.652Z,7.27
2023-02-23T22:55:16.009Z,7.40
2023-02-23T22:57:44.177Z,7.28
2023-02-23T23:00:18.344Z,7.25
2023-02-23T23:02:46.623Z,7.20
2023-02-23T23:05:16.140Z,7.25
2023-02-23T23:07:46.876Z,7.37
2023-02-23T23:10:17.729Z,7.27
2023-02-23T23:12:46.675Z,7.16
2023-02-23T23:15:17.545Z,7.08
2023-02-23T23:17:48.411Z,7.12
2023-02-23T23:20:22.973Z,7.21
2023-02-23T23:22:54.768Z,7.12
2023-02-23T23:25:23.428Z,7.00
2023-02-23T23:27:54.772Z,7.05
2023-02-23T23:30:29.457Z,7.10
2023-02-23T23:32:57.963Z,7.12
2023-02-23T23:35:26.444Z,7.16
2023-02-23T23:37:54.640Z,7.10
2023-02-23T23:40:24.482Z,7.06
2023-02-23T23:42:55.387Z,7.06
2023-02-23T23:45:27.546Z,7.11
2023-02-23T23:47:56.015Z,7.13
2023-02-23T23:50:27.496Z,7.16
2023-02-23T23:52:57.123Z,7.18
2023-02-23T23:55:31.055Z,7.06
2023-02-23T23:58:00.481Z,7.02
